Time;durP1;ratioP1;P1;durP2;ratioP2;P2;SDS_P1;SDS_P2;PMS_P1;PMS_P2;Temp;Humidity;BMP_temperature;BMP_pressure;BME280_temperature;BME280_humidity;BME280_pressure;Samples;Min_cycle;Max_cycle;Signal;HPM_P1;HPM_P2
2022/01/26 00:00:41;;;;;;;;;40.25;30.00;;;;;3.78;81.11;103235.25;5038988;28;45467;-68
2022/01/26 00:05:54;;;;;;;;;35.75;31.25;;;;;3.76;80.78;103246.44;5044880;28;45473;-69
2022/01/26 00:08:24;;;;;;;;;37.00;23.50;;;;;3.76;81.18;103242.16;5049945;28;45504;-68
2022/01/26 00:10:50;;;;;;;;;43.75;26.75;;;;;3.78;80.47;103247.38;5052373;28;45994;-68
2022/01/26 00:13:15;;;;;;;;;41.00;25.25;;;;;3.73;80.58;103244.66;5058081;28;45326;-69
2022/01/26 00:15:40;;;;;;;;;34.25;27.25;;;;;3.60;80.47;103230.47;5087666;27;56205;-68
2022/01/26 00:18:06;;;;;;;;;34.00;25.00;;;;;3.71;80.55;103250.63;5093952;27;47408;-69
2022/01/26 00:20:48;;;;;;;;;38.50;28.50;;;;;3.71;80.30;103250.63;5093473;27;45380;-69
2022/01/26 00:28:45;;;;;;;;;25.00;21.75;;;;;3.60;79.70;103247.75;5109594;27;45916;-68
2022/01/26 00:33:06;;;;;;;;;24.00;19.00;;;;;3.55;79.50;103246.75;5092009;27;45430;-69
2022/01/26 00:38:34;;;;;;;;;29.75;25.00;;;;;3.59;79.54;103259.00;5093507;27;45309;-68
2022/01/26 00:40:01;;;;;;;;;32.75;22.75;;;;;3.55;79.77;103264.97;5097637;27;45777;-69
2022/01/26 00:42:32;;;;;;;;;30.75;25.00;;;;;3.51;79.33;103271.81;5094798;27;45730;-69
2022/01/26 00:44:57;;;;;;;;;42.50;29.25;;;;;3.53;79.51;103274.44;5093295;27;47551;-69
2022/01/26 00:47:22;;;;;;;;;38.00;26.75;;;;;3.48;79.28;103270.84;5093118;27;45598;-69
2022/01/26 00:49:50;;;;;;;;;31.00;29.00;;;;;3.42;79.54;103271.56;5094432;27;46455;-69
2022/01/26 00:52:25;;;;;;;;;27.75;16.75;;;;;3.39;79.48;103267.19;5093204;27;45680;-68
2022/01/26 00:54:50;;;;;;;;;27.00;25.00;;;;;3.35;79.52;103273.13;5095814;27;45375;-69
2022/01/26 00:57:16;;;;;;;;;30.50;27.00;;;;;3.38;80.00;103273.19;5102110;27;45325;-69
2022/01/26 00:59:41;;;;;;;;;33.00;24.75;;;;;3.35;79.82;103272.25;5090835;27;52300;-69
2022/01/26 01:02:06;;;;;;;;;29.75;25.75;;;;;3.34;80.21;103267.88;5093531;27;45563;-69
2022/01/26 01:04:32;;;;;;;;;33.50;20.75;;;;;3.31;80.29;103257.41;5094493;27;45647;-69
2022/01/26 01:07:00;;;;;;;;;28.75;24.75;;;;;3.33;80.26;103266.97;5095437;27;45602;-69
2022/01/26 01:09:31;;;;;;;;;31.00;23.75;;;;;3.29;80.21;103272.06;5092886;27;47495;-69
2022/01/26 01:11:57;;;;;;;;;30.50;25.25;;;;;3.21;79.65;103258.84;5092919;27;45495;-68
2022/01/26 01:14:23;;;;;;;;;27.50;24.00;;;;;3.18;80.31;103265.69;5091522;27;45320;-69
2022/01/26 01:16:49;;;;;;;;;25.75;22.75;;;;;3.19;79.85;103263.16;5101319;27;45461;-69
2022/01/26 01:19:32;;;;;;;;;23.75;20.25;;;;;3.18;79.80;103261.34;5092144;27;45972;-69
2022/01/26 01:27:41;;;;;;;;;31.75;25.00;;;;;3.13;80.24;103248.28;5092796;27;45422;-69
2022/01/26 01:30:53;;;;;;;;;29.75;25.75;;;;;3.13;80.28;103256.06;5092982;27;45529;-69
2022/01/26 01:35:31;;;;;;;;;28.50;20.75;;;;;3.12;80.64;103266.38;5096308;27;45369;-68
2022/01/26 01:37:57;;;;;;;;;24.25;18.25;;;;;3.10;80.35;103274.16;5097683;27;45495;-69
2022/01/26 01:40:22;;;;;;;;;21.25;19.50;;;;;3.05;80.78;103262.75;5096723;27;46391;-69
2022/01/26 01:42:48;;;;;;;;;27.00;21.25;;;;;3.07;80.48;103262.78;5096729;27;45749;-68
2022/01/26 01:45:13;;;;;;;;;24.33;20.00;;;;;3.11;80.31;103262.03;5096271;27;45511;-69
2022/01/26 01:47:39;;;;;;;;;29.75;27.00;;;;;3.09;80.20;103256.81;5096304;27;45589;-69
2022/01/26 01:50:10;;;;;;;;;31.50;19.25;;;;;3.16;80.51;103267.38;5089693;27;45964;-69
2022/01/26 01:52:35;;;;;;;;;24.50;22.75;;;;;3.04;80.55;103252.31;5095743;27;45467;-69
2022/01/26 01:55:04;;;;;;;;;31.75;23.75;;;;;3.14;80.72;103276.00;5098802;27;45379;-68
2022/01/26 01:57:29;;;;;;;;;30.75;24.75;;;;;3.15;80.80;103279.47;5095701;27;45509;-69
2022/01/26 01:59:55;;;;;;;;;22.75;17.00;;;;;3.16;80.88;103275.16;5095522;27;47267;-69
2022/01/26 02:02:20;;;;;;;;;23.33;20.33;;;;;3.15;80.42;103271.69;5094853;27;45365;-69
2022/01/26 02:04:45;;;;;;;;;25.25;18.25;;;;;3.13;80.40;103271.66;5102858;27;45508;-68
2022/01/26 02:07:12;;;;;;;;;29.50;23.25;;;;;3.13;80.63;103286.31;5096152;27;45471;-69
2022/01/26 02:09:38;;;;;;;;;24.25;19.00;;;;;3.11;80.34;103277.63;5095398;27;46284;-68
2022/01/26 02:12:13;;;;;;;;;18.00;16.25;;;;;3.05;80.16;103280.06;5099128;27;45328;-68
2022/01/26 02:14:43;;;;;;;;;32.00;23.00;;;;;2.92;81.18;103281.41;5095466;27;45346;-69
2022/01/26 02:53:27;;;;;;;;;35.00;23.75;;;;;3.39;81.00;103268.88;5050870;28;45402;-68
2022/01/26 02:56:04;;;;;;;;;27.75;23.50;;;;;3.41;80.70;103264.63;5054091;28;46074;-69
2022/01/26 02:58:49;;;;;;;;;29.75;21.00;;;;;3.43;80.97;103269.84;5052652;28;45529;-69
2022/01/26 03:04:05;;;;;;;;;25.75;22.50;;;;;3.48;80.64;103271.72;5049591;28;45531;-69
2022/01/26 03:09:18;;;;;;;;;24.25;23.00;;;;;3.49;80.67;103255.28;5053751;28;45581;-69
2022/01/26 03:11:46;;;;;;;;;41.50;24.75;;;;;3.47;80.71;103243.09;5053500;28;45441;-68
2022/01/26 03:16:45;;;;;;;;;31.00;21.00;;;;;3.49;80.48;103249.19;5054273;28;45409;-68
2022/01/26 03:30:08;;;;;;;;;30.00;20.25;;;;;3.40;80.46;103258.53;4973495;28;45452;-69
2022/01/26 03:35:13;;;;;;;;;32.25;23.75;;;;;3.43;80.40;103254.25;5012738;28;45497;-69
2022/01/26 03:37:39;;;;;;;;;30.25;20.50;;;;;3.40;80.58;103248.13;5011267;28;45366;-69
2022/01/26 03:40:13;;;;;;;;;17.50;17.50;;;;;3.39;80.34;103251.59;5012587;28;45777;-68
2022/01/26 03:42:38;;;;;;;;;26.50;19.00;;;;;3.42;80.47;103240.38;5012641;28;45489;-69
2022/01/26 03:45:04;;;;;;;;;25.00;18.75;;;;;3.40;80.08;103235.13;5012134;28;46382;-69
2022/01/26 03:47:30;;;;;;;;;17.75;16.00;;;;;3.33;79.84;103241.00;5013031;28;45483;-68
2022/01/26 03:49:55;;;;;;;;;19.75;17.00;;;;;3.31;79.91;103245.28;5013153;28;45527;-69
2022/01/26 03:52:20;;;;;;;;;24.00;18.75;;;;;3.26;80.21;103236.47;5012695;28;45485;-69
2022/01/26 03:54:46;;;;;;;;;25.50;17.25;;;;;3.24;79.87;103237.28;5012455;28;47016;-69
2022/01/26 03:57:11;;;;;;;;;30.75;24.50;;;;;3.28;80.01;103242.59;5014489;28;45453;-69
2022/01/26 03:59:37;;;;;;;;;26.00;21.75;;;;;3.31;80.19;103255.69;5012201;28;45339;-69
2022/01/26 04:02:02;;;;;;;;;30.00;20.00;;;;;3.35;80.27;103254.06;5076120;27;45442;-69
2022/01/26 04:04:32;;;;;;;;;25.00;19.00;;;;;3.38;80.47;103252.41;5094835;27;45387;-69
2022/01/26 04:07:00;;;;;;;;;27.25;19.25;;;;;3.43;80.30;103259.44;5092494;27;45831;-69
2022/01/26 04:09:25;;;;;;;;;26.25;20.25;;;;;3.44;80.09;103251.69;5091913;27;45458;-69
2022/01/26 04:11:51;;;;;;;;;30.25;20.50;;;;;3.48;80.25;103250.06;5093518;27;45490;-70
2022/01/26 04:14:21;;;;;;;;;25.75;17.25;;;;;3.50;80.05;103241.47;5093451;27;46156;-68
2022/01/26 04:16:47;;;;;;;;;24.75;21.50;;;;;3.52;79.99;103244.97;5095849;27;45801;-68
2022/01/26 04:19:13;;;;;;;;;25.25;21.25;;;;;3.56;79.87;103241.63;5093685;27;45782;-69
2022/01/26 04:24:25;;;;;;;;;27.50;23.25;;;;;3.57;79.55;103227.78;5093952;27;46043;-69
2022/01/26 04:26:57;;;;;;;;;29.50;21.75;;;;;3.60;79.55;103230.47;5089053;27;45929;-69
2022/01/26 04:29:28;;;;;;;;;31.75;28.00;;;;;3.62;79.74;103226.19;5077398;27;45371;-69
2022/01/26 04:31:54;;;;;;;;;31.25;24.75;;;;;3.63;79.44;103227.06;5092978;27;45440;-69
2022/01/26 04:34:20;;;;;;;;;28.50;23.75;;;;;3.61;79.45;103234.81;5092532;27;48325;-69
2022/01/26 04:37:46;;;;;;;;;28.25;24.25;;;;;3.65;78.97;103239.28;5093241;27;45361;-69
2022/01/26 04:39:37;;;;;;;;;34.25;25.75;;;;;3.68;79.12;103241.06;5082685;27;45627;-69
2022/01/26 04:42:09;;;;;;;;;41.75;24.00;;;;;3.70;79.12;103233.28;5092493;27;45503;-69
2022/01/26 04:44:44;;;;;;;;;31.25;24.75;;;;;3.70;79.39;103230.69;5093767;27;45624;-69
2022/01/26 04:47:10;;;;;;;;;34.00;23.00;;;;;3.73;79.32;103228.16;5097953;27;45448;-69
2022/01/26 04:49:35;;;;;;;;;40.50;27.00;;;;;3.73;79.01;103233.38;5095216;27;45422;-69
2022/01/26 04:52:02;;;;;;;;;31.00;28.50;;;;;3.70;78.84;103226.34;5092796;27;45460;-69
2022/01/26 04:54:27;;;;;;;;;33.50;28.50;;;;;3.70;78.90;103230.69;5092783;27;46916;-69
2022/01/26 04:56:53;;;;;;;;;38.25;27.25;;;;;3.67;79.27;103231.50;5092794;27;45680;-69
2022/01/26 04:59:18;;;;;;;;;27.00;24.00;;;;;3.69;78.99;103236.72;5092596;27;45340;-69
2022/01/26 05:01:43;;;;;;;;;33.33;25.00;;;;;3.69;78.79;103228.94;5095195;27;45273;-68
2022/01/26 05:04:09;;;;;;;;;34.75;25.75;;;;;3.65;78.76;103228.88;5093322;27;45432;-69
2022/01/26 05:06:34;;;;;;;;;35.00;20.75;;;;;3.66;78.66;103228.03;5092940;27;45416;-69
2022/01/26 05:08:59;;;;;;;;;34.00;25.33;;;;;3.66;79.01;103224.53;5096064;27;45273;-69
2022/01/26 05:11:36;;;;;;;;;30.75;25.75;;;;;3.65;78.89;103222.75;5096476;27;45307;-69
2022/01/26 05:14:03;;;;;;;;;45.25;32.25;;;;;3.65;79.12;103226.28;5094829;27;46667;-69
2022/01/26 05:16:29;;;;;;;;;29.75;25.50;;;;;3.66;78.90;103227.16;5101201;27;45869;-69
2022/01/26 05:18:55;;;;;;;;;39.75;25.25;;;;;3.67;78.94;103224.56;5096213;27;45301;-69
2022/01/26 05:21:22;;;;;;;;;31.75;28.50;;;;;3.66;78.77;103217.63;5096258;27;45400;-69
2022/01/26 05:23:47;;;;;;;;;35.50;28.50;;;;;3.70;78.72;103228.06;5096538;27;47329;-69
2022/01/26 05:26:12;;;;;;;;;33.75;25.25;;;;;3.65;78.57;103215.88;5096381;27;45430;-69
2022/01/26 05:28:39;;;;;;;;;30.50;27.25;;;;;3.67;78.86;103216.78;5098086;27;45445;-69
2022/01/26 05:31:04;;;;;;;;;40.00;29.75;;;;;3.66;78.85;103211.53;5092282;27;45536;-69
2022/01/26 05:33:30;;;;;;;;;21.75;16.25;;;;;3.62;78.81;103213.19;5097383;27;45428;-69
2022/01/26 05:35:55;;;;;;;;;37.25;31.00;;;;;3.65;78.96;103209.75;5096427;27;45430;-70
2022/01/26 05:38:21;;;;;;;;;33.25;28.25;;;;;3.64;78.69;103210.59;5095976;27;45474;-70
2022/01/26 05:40:46;;;;;;;;;44.50;33.25;;;;;3.67;78.73;103219.38;5097244;27;45616;-69
2022/01/26 05:43:12;;;;;;;;;34.75;27.50;;;;;3.68;78.72;103199.44;5093626;27;47282;-69
2022/01/26 05:45:39;;;;;;;;;48.50;31.25;;;;;3.69;78.77;103201.19;5092967;27;45422;-69
2022/01/26 05:48:09;;;;;;;;;34.75;26.50;;;;;3.73;78.31;103196.97;5095940;27;45421;-69
2022/01/26 05:50:37;;;;;;;;;41.25;28.75;;;;;3.75;78.45;103196.13;5096014;27;45416;-69
2022/01/26 05:53:02;;;;;;;;;39.00;32.00;;;;;3.71;78.40;103191.72;5092295;27;47788;-68
2022/01/26 05:55:28;;;;;;;;;50.25;34.50;;;;;3.74;78.42;103199.59;5098661;27;45483;-68
2022/01/26 05:57:53;;;;;;;;;35.50;26.50;;;;;3.72;78.25;103196.09;5095899;27;45778;-68
2022/01/26 06:00:18;;;;;;;;;45.75;35.00;;;;;3.73;78.22;103192.63;5095786;27;45332;-68
2022/01/26 06:02:44;;;;;;;;;40.50;29.25;;;;;3.77;78.24;103198.81;5094914;27;46517;-69
2022/01/26 06:05:10;;;;;;;;;40.25;31.25;;;;;3.78;78.16;103198.84;5097560;27;46008;-68
2022/01/26 06:07:36;;;;;;;;;41.25;35.25;;;;;3.79;78.41;103204.91;5099140;27;45351;-68
2022/01/26 06:10:01;;;;;;;;;51.00;34.25;;;;;3.80;78.25;103204.94;5095257;27;45397;-68
2022/01/26 06:12:28;;;;;;;;;43.25;34.75;;;;;3.80;78.53;103204.94;5095564;27;46347;-69
2022/01/26 06:14:53;;;;;;;;;47.00;30.00;;;;;3.84;78.30;103214.59;5097818;27;45499;-68
2022/01/26 06:17:18;;;;;;;;;40.25;30.50;;;;;3.88;78.62;103216.44;5080189;27;45365;-68
2022/01/26 06:19:44;;;;;;;;;41.75;27.25;;;;;3.90;78.28;103219.94;5087048;27;45667;-68
2022/01/26 06:22:09;;;;;;;;;41.75;31.50;;;;;3.80;78.39;103207.53;5103325;27;46313;-68
2022/01/26 06:24:35;;;;;;;;;40.25;33.75;;;;;3.93;78.03;103233.03;5099538;27;45289;-68
2022/01/26 06:27:00;;;;;;;;;59.33;40.00;;;;;3.93;78.42;103227.81;5093669;27;45486;-68
2022/01/26 06:29:26;;;;;;;;;45.00;28.75;;;;;4.00;78.26;103240.97;5095556;27;45278;-68
2022/01/26 06:31:52;;;;;;;;;45.75;38.75;;;;;4.00;78.27;103239.25;5094283;27;45611;-68
2022/01/26 06:34:18;;;;;;;;;44.75;38.00;;;;;3.97;77.66;103253.91;5099691;27;45995;-68
2022/01/26 06:36:43;;;;;;;;;60.00;40.50;;;;;3.99;78.09;103267.84;5088659;27;45470;-68
2022/01/26 06:39:13;;;;;;;;;41.00;24.00;;;;;3.98;78.03;103260.88;5094105;27;45508;-68
2022/01/26 06:41:40;;;;;;;;;42.25;33.50;;;;;3.93;77.42;103266.84;5100669;27;46426;-68
2022/01/26 06:44:18;;;;;;;;;48.25;36.25;;;;;3.88;77.38;103272.78;5095900;27;45651;-68
2022/01/26 06:47:21;;;;;;;;;44.50;36.50;;;;;3.85;77.09;103268.38;5096139;27;45334;-68
2022/01/26 06:49:29;;;;;;;;;45.75;38.25;;;;;3.86;77.27;103277.03;5093709;27;47483;-68
2022/01/26 06:51:56;;;;;;;;;65.00;40.50;;;;;3.86;77.59;103290.06;5094624;27;46503;-68
2022/01/26 06:54:21;;;;;;;;;46.25;40.25;;;;;3.90;77.93;103292.78;5094930;27;45784;-68
2022/01/26 06:56:47;;;;;;;;;55.75;40.00;;;;;3.91;77.80;103291.97;5095119;27;45442;-68
2022/01/26 06:59:13;;;;;;;;;46.00;37.00;;;;;3.93;77.56;103291.97;5095537;27;45419;-68
2022/01/26 07:01:39;;;;;;;;;57.00;43.25;;;;;3.92;77.81;103278.09;5096860;27;45445;-68
2022/01/26 07:04:04;;;;;;;;;50.00;36.75;;;;;3.95;77.71;103279.00;5093348;27;49176;-68
2022/01/26 07:06:30;;;;;;;;;64.67;45.33;;;;;3.93;77.48;103278.97;5094043;27;45427;-70
2022/01/26 07:08:55;;;;;;;;;75.25;57.50;;;;;3.97;77.27;103279.91;5094956;27;45461;-68
2022/01/26 07:11:20;;;;;;;;;63.25;48.50;;;;;4.01;77.57;103284.34;5076725;27;45737;-69
2022/01/26 07:13:46;;;;;;;;;58.50;41.00;;;;;3.99;77.83;103279.13;5096858;27;45379;-68
2022/01/26 07:21:39;;;;;;;;;59.75;43.25;;;;;4.00;77.25;103288.69;5094166;27;45314;-69
2022/01/26 07:24:05;;;;;;;;;46.75;35.00;;;;;3.97;77.40;103277.31;5093070;27;45913;-68
2022/01/26 07:26:31;;;;;;;;;48.25;37.75;;;;;3.90;77.51;103266.75;5095223;27;45573;-69
2022/01/26 07:29:05;;;;;;;;;41.50;32.00;;;;;3.96;76.84;103271.22;5096171;27;45765;-69
2022/01/26 07:31:30;;;;;;;;;77.50;55.00;;;;;3.92;77.55;103262.50;5098334;27;45643;-68
2022/01/26 07:33:57;;;;;;;;;81.75;59.50;;;;;3.97;77.20;103273.03;5088611;27;45820;-69
2022/01/26 07:36:24;;;;;;;;;81.00;61.75;;;;;3.96;77.23;103275.56;5082723;27;45541;-69
2022/01/26 07:38:50;;;;;;;;;103.50;83.25;;;;;4.02;77.23;103286.13;5076236;27;45598;-69
2022/01/26 07:41:16;;;;;;;;;65.25;47.25;;;;;4.08;77.24;103292.38;5074413;27;47525;-69
2022/01/26 07:43:42;;;;;;;;;46.50;39.50;;;;;4.09;77.08;103290.66;5095760;27;45881;-69
2022/01/26 07:46:09;;;;;;;;;48.67;38.00;;;;;4.07;77.08;103293.22;5093499;27;45581;-69
2022/01/26 07:48:35;;;;;;;;;40.50;34.25;;;;;3.89;77.20;103267.59;5093306;27;45576;-69
2022/01/26 07:51:02;;;;;;;;;47.25;41.75;;;;;4.02;77.11;103288.72;5093798;27;46901;-69
2022/01/26 07:53:28;;;;;;;;;52.75;30.50;;;;;4.00;77.03;103293.88;5091588;27;45408;-69
2022/01/26 07:55:55;;;;;;;;;64.50;47.50;;;;;3.97;76.73;103299.03;5096136;27;45364;-69
2022/01/26 07:58:21;;;;;;;;;52.00;44.75;;;;;3.99;76.88;103294.75;5092260;27;45380;-69
2022/01/26 08:00:46;;;;;;;;;72.25;56.50;;;;;4.06;77.41;103308.78;5093155;27;45952;-69
2022/01/26 08:03:11;;;;;;;;;94.00;70.75;;;;;4.08;76.84;103310.59;5098610;27;45407;-68
2022/01/26 08:05:37;;;;;;;;;65.33;50.33;;;;;4.11;76.86;103310.66;5093511;27;45491;-68
2022/01/26 08:08:03;;;;;;;;;78.50;54.00;;;;;4.13;76.77;103308.09;5094547;27;45438;-69
2022/01/26 08:10:28;;;;;;;;;71.50;52.25;;;;;4.19;77.14;103313.47;5094597;27;46453;-69
2022/01/26 08:12:54;;;;;;;;;62.00;45.25;;;;;4.23;77.24;103309.19;5093680;27;45474;-68
2022/01/26 08:15:19;;;;;;;;;56.25;41.25;;;;;4.25;76.71;103305.78;5093895;27;45317;-69
2022/01/26 08:17:44;;;;;;;;;40.75;32.50;;;;;4.26;76.47;103289.31;5093518;27;45431;-69
2022/01/26 08:20:10;;;;;;;;;51.00;41.50;;;;;4.27;76.61;103277.19;5092926;27;47378;-69
2022/01/26 08:22:37;;;;;;;;;38.00;31.25;;;;;4.29;76.57;103284.22;5095516;27;45461;-69
2022/01/26 08:25:03;;;;;;;;;60.00;39.50;;;;;4.30;76.42;103280.75;5093531;27;45458;-69
2022/01/26 08:27:36;;;;;;;;;54.50;41.25;;;;;4.30;76.13;103283.34;5098621;27;45427;-69
2022/01/26 08:30:08;;;;;;;;;50.50;40.75;;;;;4.30;76.13;103283.34;5092389;27;46997;-69
2022/01/26 08:32:33;;;;;;;;;81.25;61.50;;;;;4.30;75.91;103278.16;5101160;27;45624;-69
2022/01/26 08:34:58;;;;;;;;;49.75;42.50;;;;;4.32;75.95;103280.78;5094480;27;45228;-69
2022/01/26 08:37:24;;;;;;;;;41.75;31.25;;;;;4.30;75.64;103267.75;5093646;27;45542;-68
2022/01/26 08:39:49;;;;;;;;;47.00;36.25;;;;;4.38;75.78;103288.72;5093281;27;45570;-68
2022/01/26 08:42:15;;;;;;;;;61.25;43.75;;;;;4.42;76.21;103294.06;5092426;27;45382;-69
2022/01/26 08:44:40;;;;;;;;;49.75;35.50;;;;;4.43;75.59;103281.91;5092850;27;45328;-69
2022/01/26 08:47:06;;;;;;;;;64.67;38.00;;;;;4.48;75.91;103272.47;5094509;27;45338;-69
2022/01/26 08:49:32;;;;;;;;;56.00;41.00;;;;;4.54;75.54;103293.47;5093750;27;46305;-69
2022/01/26 08:51:58;;;;;;;;;50.25;40.25;;;;;4.59;75.47;103302.25;5097733;27;45389;-69
2022/01/26 08:54:24;;;;;;;;;46.75;41.50;;;;;4.60;75.13;103298.81;5093108;27;45455;-68
2022/01/26 08:56:50;;;;;;;;;60.25;40.25;;;;;4.65;75.39;103299.81;5088637;27;45438;-69
2022/01/26 08:59:17;;;;;;;;;55.75;39.00;;;;;4.67;75.00;103298.09;5092230;27;46071;-69
2022/01/26 09:01:42;;;;;;;;;64.25;44.75;;;;;4.70;75.04;103290.38;5084598;27;45886;-69
2022/01/26 09:04:08;;;;;;;;;45.00;40.25;;;;;4.78;74.85;103315.69;5085673;27;45527;-69
2022/01/26 09:06:38;;;;;;;;;58.75;43.25;;;;;4.79;74.94;103314.84;5088305;27;45476;-69
2022/01/26 09:09:07;;;;;;;;;62.50;46.50;;;;;4.81;74.98;103308.84;5097041;27;45734;-69
2022/01/26 09:11:35;;;;;;;;;55.25;42.25;;;;;4.82;74.66;103301.91;5085092;27;45527;-69
2022/01/26 09:14:00;;;;;;;;;51.25;44.75;;;;;4.86;74.92;103306.34;5086766;27;45399;-69
2022/01/26 09:16:27;;;;;;;;;47.67;32.67;;;;;4.87;74.53;103306.38;5093079;27;45472;-69
2022/01/26 09:18:57;;;;;;;;;38.25;35.75;;;;;4.85;74.13;103309.78;5083134;27;46120;-69
2022/01/26 09:21:24;;;;;;;;;51.75;36.50;;;;;4.88;74.65;103317.66;5080307;27;45361;-69
2022/01/26 09:23:49;;;;;;;;;57.25;43.75;;;;;4.92;74.17;103327.31;5077548;27;45560;-68
2022/01/26 09:26:15;;;;;;;;;48.25;38.50;;;;;4.93;74.80;103331.69;5095745;27;45323;-69
2022/01/26 09:28:40;;;;;;;;;49.25;40.00;;;;;4.92;74.02;103330.81;5085611;27;45559;-69
2022/01/26 09:31:06;;;;;;;;;53.00;38.00;;;;;4.97;74.49;103337.00;5088347;27;45323;-69
2022/01/26 09:33:31;;;;;;;;;50.50;43.00;;;;;4.99;74.48;103339.63;5075638;27;45391;-69
2022/01/26 09:35:57;;;;;;;;;45.67;34.67;;;;;5.02;74.09;103336.22;5094097;27;45580;-70
2022/01/26 09:38:23;;;;;;;;;57.00;42.50;;;;;5.03;74.33;103337.97;5106369;27;45778;-69
2022/01/26 09:40:50;;;;;;;;;54.25;39.75;;;;;5.07;74.29;103340.69;5099171;27;45574;-69
2022/01/26 09:43:18;;;;;;;;;48.00;38.00;;;;;5.09;74.13;103328.56;5074754;27;45455;-69
2022/01/26 09:45:45;;;;;;;;;48.50;35.75;;;;;5.09;74.13;103331.16;5092488;27;45450;-69
2022/01/26 09:48:12;;;;;;;;;52.75;34.25;;;;;5.13;73.85;103339.94;5091482;27;46649;-69
2022/01/26 09:50:42;;;;;;;;;45.25;36.25;;;;;5.13;73.37;103342.53;5104448;27;45431;-69
2022/01/26 09:53:07;;;;;;;;;44.75;36.25;;;;;5.17;73.85;103357.41;5093320;27;45458;-69
2022/01/26 09:55:32;;;;;;;;;46.75;34.25;;;;;5.19;73.68;103345.28;5092907;27;45439;-69
2022/01/26 09:57:58;;;;;;;;;42.33;32.33;;;;;5.27;73.88;103351.50;5092075;27;54638;-69
2022/01/26 10:00:25;;;;;;;;;58.25;43.00;;;;;5.30;74.30;103356.78;5091445;27;45998;-69
2022/01/26 10:02:58;;;;;;;;;62.50;43.75;;;;;5.35;73.63;103357.78;5081518;27;45429;-69
2022/01/26 10:05:24;;;;;;;;;76.75;57.75;;;;;5.37;73.77;103365.63;5112319;27;45427;-68
2022/01/26 10:07:59;;;;;;;;;69.25;51.00;;;;;5.40;74.09;103363.97;5103149;27;46169;-68
2022/01/26 10:15:48;;;;;;;;;72.25;56.25;;;;;5.45;74.36;103349.28;5090092;27;45543;-68
2022/01/26 10:18:17;;;;;;;;;48.50;38.50;;;;;5.41;74.08;103354.41;5083957;27;45496;-69
2022/01/26 10:20:53;;;;;;;;;43.75;34.25;;;;;5.42;73.96;103358.78;5093563;27;45984;-68
2022/01/26 10:23:28;;;;;;;;;59.00;43.75;;;;;5.40;74.31;103350.94;5093253;27;45249;-68
2022/01/26 10:26:13;;;;;;;;;59.00;45.75;;;;;5.41;73.92;103352.69;5109583;27;45569;-68
2022/01/26 10:28:44;;;;;;;;;62.75;42.25;;;;;5.42;74.28;103362.25;5086716;27;45555;-68
2022/01/26 10:31:17;;;;;;;;;63.00;45.00;;;;;5.42;73.78;103361.38;5088990;27;45395;-68
2022/01/26 10:34:00;;;;;;;;;53.25;40.25;;;;;5.40;74.20;103360.47;5087816;27;45416;-68
2022/01/26 10:36:33;;;;;;;;;53.75;38.25;;;;;5.38;73.95;103347.41;5083252;27;45478;-69
2022/01/26 10:39:03;;;;;;;;;46.50;37.00;;;;;5.37;74.09;103340.41;5091656;27;45481;-68
2022/01/26 10:41:28;;;;;;;;;75.75;56.00;;;;;5.39;73.90;103333.53;5082193;27;45848;-68
2022/01/26 10:43:56;;;;;;;;;52.50;41.00;;;;;5.42;73.92;103340.50;5093235;27;45370;-69
2022/01/26 10:46:31;;;;;;;;;61.50;42.75;;;;;5.46;74.20;103355.38;5084893;27;45633;-68
2022/01/26 10:54:35;;;;;;;;;61.50;35.00;;;;;5.57;74.13;103355.59;5086794;27;45568;-68
2022/01/26 10:57:01;;;;;;;;;49.50;37.00;;;;;5.57;74.03;103334.72;5117969;27;45537;-68
2022/01/26 10:59:26;;;;;;;;;41.75;37.50;;;;;5.61;73.86;103339.16;5088418;27;45426;-69
2022/01/26 11:01:53;;;;;;;;;43.75;32.25;;;;;5.65;73.78;103341.00;5088366;27;45758;-69
2022/01/26 11:04:19;;;;;;;;;43.00;36.50;;;;;5.65;73.68;103339.25;5089316;27;45407;-69
2022/01/26 11:06:51;;;;;;;;;50.25;38.50;;;;;5.65;73.95;103341.88;5100855;27;45555;-69
2022/01/26 11:09:20;;;;;;;;;50.00;40.75;;;;;5.66;74.02;103334.91;5101483;27;45506;-69
2022/01/26 11:11:46;;;;;;;;;52.25;38.50;;;;;5.67;74.27;103326.22;5103446;27;45588;-68
2022/01/26 11:14:22;;;;;;;;;47.00;36.00;;;;;5.67;74.24;103319.28;5092552;27;45572;-68
2022/01/26 11:16:54;;;;;;;;;75.25;51.00;;;;;5.79;74.27;103334.28;5115363;27;45491;-69
2022/01/26 11:19:20;;;;;;;;;58.50;45.00;;;;;5.85;73.86;103321.38;5090115;27;46073;-68
2022/01/26 11:21:46;;;;;;;;;42.00;34.25;;;;;5.88;73.66;103316.19;5089869;27;45850;-68
2022/01/26 11:24:23;;;;;;;;;47.25;38.25;;;;;5.91;73.96;103311.06;5090944;27;45388;-67
2022/01/26 11:27:02;;;;;;;;;40.75;37.25;;;;;5.97;73.47;103305.06;5082307;27;45505;-67
2022/01/26 11:29:33;;;;;;;;;45.50;34.50;;;;;6.04;73.60;103298.22;5079967;27;46385;-67
2022/01/26 11:32:13;;;;;;;;;51.25;36.00;;;;;6.10;73.90;103299.19;5100996;27;46083;-66
2022/01/26 11:34:40;;;;;;;;;59.25;44.00;;;;;6.14;73.77;103313.19;5093246;27;45474;-68
2022/01/26 11:37:13;;;;;;;;;57.00;36.25;;;;;6.21;73.31;103315.94;5076096;27;45432;-67
2022/01/26 11:45:04;;;;;;;;;56.25;39.00;;;;;6.25;73.21;103288.13;5090716;27;45369;-67
2022/01/26 11:45:23;;;;;;;;;49.00;34.00;;;;;6.23;73.45;103274.16;5088735;27;45581;-68
2022/01/26 11:48:09;;;;;;;;;45.50;36.00;;;;;6.34;73.02;103277.81;5094346;27;45539;-67
2022/01/26 11:50:37;;;;;;;;;70.25;53.00;;;;;6.43;72.94;103277.09;5080698;27;47251;-67
2022/01/26 11:53:10;;;;;;;;;72.50;48.25;;;;;6.47;73.04;103269.31;5075572;27;46213;-67
2022/01/26 11:55:38;;;;;;;;;47.25;32.00;;;;;6.51;72.96;103257.16;5089630;27;45495;-67
2022/01/26 11:58:10;;;;;;;;;37.00;28.75;;;;;6.56;73.20;103257.22;5086837;27;45421;-68
2022/01/26 12:00:46;;;;;;;;;45.50;33.50;;;;;6.58;72.78;103252.91;5086288;27;46596;-68
2022/01/26 12:03:26;;;;;;;;;49.25;34.75;;;;;6.60;72.72;103254.69;5077873;27;45372;-68
2022/01/26 12:05:55;;;;;;;;;65.50;50.50;;;;;6.67;72.61;103250.41;5077244;27;45432;-68
2022/01/26 12:08:30;;;;;;;;;54.00;40.00;;;;;6.68;72.19;103239.09;5103911;27;45658;-68
2022/01/26 12:10:55;;;;;;;;;54.75;37.75;;;;;6.63;72.81;103238.16;5090369;27;46189;-68
2022/01/26 12:13:25;;;;;;;;;42.00;33.50;;;;;6.70;72.42;103242.63;5088429;27;45403;-68
2022/01/26 12:15:55;;;;;;;;;39.50;31.50;;;;;6.70;72.42;103246.13;5098028;27;45603;-68
2022/01/26 12:32:39;;;;;;;;;44.00;36.00;;;;;6.85;72.34;103239.34;5087995;27;45829;-68
2022/01/26 12:38:30;;;;;;;;;65.00;45.75;;;;;6.83;71.33;103235.81;5090217;27;46287;-68
2022/01/26 12:41:20;;;;;;;;;69.75;48.25;;;;;6.81;71.29;103241.03;5091295;27;45403;-68
2022/01/26 12:43:47;;;;;;;;;67.75;48.50;;;;;6.75;71.43;103235.72;5075982;27;45493;-68
2022/01/26 12:46:16;;;;;;;;;66.25;48.50;;;;;6.70;71.54;103238.28;5096309;27;45378;-68
2022/01/26 12:48:50;;;;;;;;;54.00;45.00;;;;;6.68;71.31;103250.47;5085454;27;45732;-69
2022/01/26 12:51:17;;;;;;;;;64.25;47.50;;;;;6.59;71.33;103246.84;5081586;27;45306;-69
2022/01/26 12:53:42;;;;;;;;;74.00;54.00;;;;;6.53;71.50;103243.28;5097449;27;45826;-68
2022/01/26 12:56:11;;;;;;;;;70.25;51.75;;;;;6.54;70.92;103252.88;5089625;27;45647;-69
2022/01/26 12:58:38;;;;;;;;;76.75;53.50;;;;;6.48;71.04;103246.69;5089658;27;45479;-69
2022/01/26 13:01:10;;;;;;;;;68.75;52.25;;;;;6.42;71.34;103237.03;5068871;27;45637;-68
2022/01/26 13:03:38;;;;;;;;;77.00;52.75;;;;;6.38;70.96;103231.75;5090112;27;45442;-69
2022/01/26 13:06:09;;;;;;;;;81.75;57.50;;;;;6.31;71.09;103224.66;5074270;27;45893;-68
2022/01/26 13:08:55;;;;;;;;;74.00;52.75;;;;;6.34;71.55;103230.81;5086822;27;45596;-69
2022/01/26 13:11:35;;;;;;;;;67.00;53.25;;;;;6.26;71.54;103209.81;5089915;27;45605;-69
2022/01/26 13:14:03;;;;;;;;;68.75;50.75;;;;;6.25;71.21;103221.09;5087770;27;45700;-69
2022/01/26 13:16:35;;;;;;;;;68.50;49.00;;;;;6.13;71.06;103210.47;5095537;27;45990;-69
2022/01/26 13:19:17;;;;;;;;;72.50;55.25;;;;;6.11;71.18;103220.03;5088466;27;45419;-69